createdAt,value
2022-10-23T00:01:44.703Z,95.97
2022-10-23T00:04:17.620Z,95.97
2022-10-23T00:06:45.083Z,95.91
2022-10-23T00:09:13.898Z,96.08
2022-10-23T00:11:43.802Z,96.13
2022-10-23T00:14:11.135Z,96.21
2022-10-23T00:16:37.771Z,96.22
2022-10-23T00:19:04.512Z,96.48
2022-10-23T00:21:31.651Z,96.76
2022-10-23T00:23:58.450Z,96.82
2022-10-23T00:26:25.092Z,96.62
2022-10-23T00:28:53.435Z,96.31
2022-10-23T00:31:21.542Z,96.50
2022-10-23T00:33:49.420Z,96.62
2022-10-23T00:36:17.692Z,96.64
2022-10-23T00:38:45.221Z,96.99
2022-10-23T00:41:23.159Z,96.61
2022-10-23T00:44:07.488Z,96.78
2022-10-23T00:46:35.843Z,96.76
2022-10-23T00:49:04.163Z,96.76
2022-10-23T00:51:36.135Z,96.89
2022-10-23T00:56:59.345Z,96.93
2022-10-23T00:59:26.454Z,97.03
2022-10-23T01:01:54.006Z,97.11
2022-10-23T01:04:21.575Z,97.23
2022-10-23T01:07:13.055Z,97.21
2022-10-23T01:10:16.915Z,97.00
2022-10-23T01:12:57.285Z,97.11
2022-10-23T01:15:43.434Z,96.82
2022-10-23T01:18:18.226Z,96.79
2022-10-23T01:20:48.377Z,97.03
2022-10-23T01:23:27.853Z,96.98
2022-10-23T01:26:10.104Z,96.92
2022-10-23T01:28:45.328Z,96.75
2022-10-23T01:31:17.260Z,96.89
2022-10-23T01:33:49.205Z,96.59
2022-10-23T01:36:19.015Z,96.82
2022-10-23T01:39:00.198Z,96.76
2022-10-23T01:41:31.761Z,96.65
2022-10-23T01:44:07.064Z,96.60
2022-10-23T01:46:35.800Z,96.84
2022-10-23T01:49:03.962Z,97.00
2022-10-23T01:51:34.655Z,97.04
2022-10-23T01:54:02.162Z,97.03
2022-10-23T01:56:33.940Z,96.90
2022-10-23T01:59:06.340Z,96.80
2022-10-23T02:01:36.747Z,96.60
2022-10-23T02:04:08.685Z,96.47
2022-10-23T02:06:35.346Z,96.76
2022-10-23T02:09:02.309Z,96.62
2022-10-23T02:11:30.129Z,96.41
2022-10-23T02:14:06.961Z,96.18
2022-10-23T02:16:52.632Z,95.99
2022-10-23T02:19:34.474Z,96.10
2022-10-23T02:22:03.889Z,96.31
2022-10-23T02:24:49.040Z,96.35
2022-10-23T02:27:22.006Z,96.37
2022-10-23T02:29:51.920Z,96.35
2022-10-23T02:32:21.399Z,96.47
2022-10-23T02:34:49.618Z,95.95
2022-10-23T02:37:17.048Z,95.94
2022-10-23T02:39:44.958Z,96.09
2022-10-23T02:42:16.064Z,96.63
2022-10-23T02:45:03.515Z,96.86
2022-10-23T02:47:46.132Z,96.83
2022-10-23T02:50:50.003Z,96.73
2022-10-23T02:53:29.613Z,96.60
2022-10-23T02:56:08.302Z,96.42
2022-10-23T02:58:47.655Z,96.45
2022-10-23T03:01:23.012Z,96.15
2022-10-23T03:03:55.470Z,96.07
2022-10-23T03:06:24.291Z,96.08
2022-10-23T03:08:58.371Z,96.16
2022-10-23T03:11:25.425Z,96.32
2022-10-23T03:13:52.374Z,96.33
2022-10-23T03:16:18.977Z,96.23
2022-10-23T03:18:45.907Z,96.34
2022-10-23T03:21:12.520Z,96.62
2022-10-23T03:23:38.996Z,96.67
2022-10-23T03:26:05.671Z,96.91
2022-10-23T03:28:32.350Z,96.91
2022-10-23T03:30:58.845Z,96.89
2022-10-23T03:33:25.369Z,96.89
2022-10-23T03:35:51.842Z,96.99
2022-10-23T03:38:18.582Z,96.90
2022-10-23T03:40:45.837Z,96.79
2022-10-23T03:43:14.652Z,96.81
2022-10-23T03:45:41.322Z,96.84
2022-10-23T03:48:08.082Z,96.86
2022-10-23T03:50:35.534Z,96.93
2022-10-23T03:53:02.153Z,96.89
2022-10-23T03:55:29.132Z,96.96
2022-10-23T03:57:55.619Z,96.92
2022-10-23T04:00:22.308Z,96.95
2022-10-23T04:02:51.726Z,96.95
2022-10-23T04:05:18.435Z,96.96
2022-10-23T04:07:44.897Z,96.93
2022-10-23T04:10:11.423Z,96.91
2022-10-23T04:12:37.996Z,96.81
2022-10-23T04:15:05.608Z,96.93
2022-10-23T04:17:32.290Z,97.24
2022-10-23T04:19:58.797Z,97.16
2022-10-23T04:22:28.307Z,97.30
2022-10-23T04:24:55.653Z,97.36
2022-10-23T04:27:22.434Z,97.39
2022-10-23T04:29:49.350Z,97.32
2022-10-23T04:32:16.024Z,97.14
2022-10-23T04:34:42.528Z,97.27
2022-10-23T04:37:08.998Z,97.15
2022-10-23T04:39:35.534Z,97.20
2022-10-23T04:42:05.335Z,97.13
2022-10-23T04:44:32.248Z,97.34
2022-10-23T04:46:58.836Z,97.50
2022-10-23T04:49:25.354Z,97.39
2022-10-23T04:51:51.941Z,97.32
2022-10-23T04:54:18.663Z,97.28
2022-10-23T04:56:45.239Z,97.26
2022-10-23T04:59:12.157Z,97.34
2022-10-23T05:01:38.762Z,97.27
2022-10-23T05:04:05.420Z,97.21
2022-10-23T05:06:32.057Z,97.25
2022-10-23T05:08:58.557Z,97.31
2022-10-23T05:11:25.127Z,97.27
2022-10-23T05:13:51.639Z,97.17
2022-10-23T05:16:44.477Z,96.93
2022-10-23T05:19:14.794Z,96.91
2022-10-23T05:21:41.587Z,96.82
2022-10-23T05:24:08.403Z,96.74
2022-10-23T05:26:34.917Z,96.62
2022-10-23T05:29:04.115Z,96.50
2022-10-23T05:31:31.309Z,96.67
2022-10-23T05:33:57.978Z,96.98
2022-10-23T05:36:25.644Z,96.85
2022-10-23T05:38:52.834Z,96.64
2022-10-23T05:41:19.476Z,96.35
2022-10-23T05:43:46.401Z,96.13
2022-10-23T05:46:13.040Z,95.86
2022-10-23T05:48:39.573Z,95.79
2022-10-23T05:51:08.222Z,95.75
2022-10-23T05:53:36.215Z,95.70
2022-10-23T05:56:08.985Z,95.41
2022-10-23T05:58:35.874Z,95.38
2022-10-23T06:01:07.587Z,95.32
2022-10-23T06:03:34.238Z,95.49
2022-10-23T06:06:00.790Z,95.37
2022-10-23T06:08:27.412Z,95.35
2022-10-23T06:10:53.976Z,95.27
2022-10-23T06:13:20.481Z,95.15
2022-10-23T06:15:47.136Z,94.83
2022-10-23T06:18:13.728Z,94.71
2022-10-23T06:20:40.439Z,94.65
2022-10-23T06:23:07.622Z,94.65
2022-10-23T06:25:34.263Z,94.52
2022-10-23T06:28:02.837Z,94.05
2022-10-23T06:33:40.831Z,93.74
2022-10-23T06:36:10.908Z,93.64
2022-10-23T06:38:40.334Z,93.62
2022-10-23T06:41:14.064Z,93.64
2022-10-23T06:43:41.154Z,93.40
2022-10-23T06:46:07.803Z,93.25
2022-10-23T06:48:34.500Z,93.24
2022-10-23T06:51:08.040Z,93.03
2022-10-23T06:53:35.938Z,92.77
2022-10-23T06:56:03.409Z,92.46
2022-10-23T06:58:30.294Z,92.06
2022-10-23T07:01:01.324Z,91.85
2022-10-23T07:03:28.115Z,91.88
2022-10-23T07:05:54.604Z,92.00
2022-10-23T07:08:21.810Z,91.94
2022-10-23T07:10:50.333Z,91.94
2022-10-23T07:13:17.765Z,91.79
2022-10-23T07:15:44.359Z,91.77
2022-10-23T07:18:14.652Z,91.55
2022-10-23T07:20:41.709Z,91.35
2022-10-23T07:23:13.432Z,91.07
2022-10-23T07:25:40.213Z,91.30
2022-10-23T07:28:07.631Z,90.66
2022-10-23T07:30:34.778Z,90.61
2022-10-23T07:33:02.202Z,89.98
2022-10-23T07:35:32.109Z,89.06
2022-10-23T07:38:02.409Z,88.44
2022-10-23T07:40:28.924Z,87.83
2022-10-23T07:42:56.362Z,87.08
2022-10-23T07:45:22.906Z,87.05
2022-10-23T07:47:53.436Z,86.47
2022-10-23T07:50:20.199Z,85.53
2022-10-23T07:52:48.194Z,84.70
2022-10-23T07:55:14.970Z,83.28
2022-10-23T07:57:41.469Z,82.23
2022-10-23T08:00:10.137Z,81.23
2022-10-23T08:02:36.875Z,80.57
2022-10-23T08:05:04.055Z,79.58
2022-10-23T08:07:35.144Z,78.97
2022-10-23T08:10:05.316Z,78.01
2022-10-23T08:12:37.961Z,77.72
2022-10-23T08:15:05.028Z,77.35
2022-10-23T08:17:31.602Z,77.76
2022-10-23T08:19:58.517Z,77.63
2022-10-23T08:22:25.191Z,77.66
2022-10-23T08:24:51.803Z,78.77
2022-10-23T08:27:19.068Z,79.05
2022-10-23T08:29:45.650Z,78.78
2022-10-23T08:32:12.412Z,78.17
2022-10-23T08:34:39.882Z,77.47
2022-10-23T08:37:07.052Z,78.42
2022-10-23T08:39:38.050Z,78.08
2022-10-23T08:42:05.160Z,78.56
2022-10-23T08:44:52.545Z,78.58
2022-10-23T08:47:25.116Z,78.68
2022-10-23T08:49:59.241Z,78.75
2022-10-23T08:52:50.793Z,79.49
2022-10-23T08:55:31.424Z,79.20
2022-10-23T08:58:04.881Z,79.16
2022-10-23T09:00:32.079Z,79.28
2022-10-23T09:03:03.627Z,78.48
2022-10-23T09:05:49.374Z,78.79
2022-10-23T09:08:34.163Z,78.41
2022-10-23T09:11:08.299Z,77.43
2022-10-23T09:13:43.909Z,75.82
2022-10-23T09:16:35.382Z,73.67
2022-10-23T09:19:02.404Z,73.01
2022-10-23T09:21:30.183Z,72.79
2022-10-23T09:23:56.975Z,72.04
2022-10-23T09:26:23.758Z,72.81
2022-10-23T09:28:55.225Z,73.87
2022-10-23T09:31:21.835Z,73.33
2022-10-23T09:33:59.856Z,74.07
2022-10-23T09:36:29.410Z,75.13
2022-10-23T09:39:01.739Z,74.01
2022-10-23T09:41:35.963Z,73.33
2022-10-23T09:44:08.163Z,71.88
2022-10-23T09:49:23.752Z,73.18
2022-10-23T09:52:02.051Z,73.53
2022-10-23T09:54:33.055Z,73.74
2022-10-23T09:57:18.120Z,73.60
2022-10-23T09:59:44.651Z,73.06
2022-10-23T10:02:41.495Z,73.05
2022-10-23T10:05:26.365Z,74.15
2022-10-23T10:08:00.298Z,74.88
2022-10-23T10:10:33.643Z,74.81
2022-10-23T10:13:11.949Z,74.74
2022-10-23T10:15:53.021Z,75.41
2022-10-23T10:18:41.624Z,75.06
2022-10-23T10:21:23.188Z,75.41
2022-10-23T10:23:53.799Z,75.66
2022-10-23T10:26:48.320Z,75.87
2022-10-23T10:29:29.749Z,76.12
2022-10-23T10:32:20.721Z,76.09
2022-10-23T10:35:24.686Z,76.16
2022-10-23T10:38:11.222Z,76.10
2022-10-23T10:40:56.654Z,75.92
2022-10-23T10:43:41.661Z,75.60
2022-10-23T10:46:25.805Z,76.13
2022-10-23T10:49:15.241Z,75.98
2022-10-23T10:52:00.035Z,76.03
2022-10-23T10:54:45.167Z,75.89
2022-10-23T10:57:31.193Z,75.28
2022-10-23T11:00:02.153Z,75.15
2022-10-23T11:02:35.678Z,75.51
2022-10-23T11:05:26.944Z,75.27
2022-10-23T11:07:58.875Z,74.83
2022-10-23T11:10:27.759Z,74.81
2022-10-23T11:12:54.525Z,74.90
2022-10-23T11:15:27.142Z,74.95
2022-10-23T11:17:59.718Z,75.09
2022-10-23T11:20:40.037Z,74.86
2022-10-23T11:23:37.501Z,75.14
2022-10-23T11:26:19.590Z,75.76
2022-10-23T11:28:59.493Z,75.62
2022-10-23T11:31:39.857Z,77.57
2022-10-23T11:34:09.109Z,79.01
2022-10-23T11:36:53.348Z,80.63
2022-10-23T11:39:29.560Z,80.72
2022-10-23T11:42:15.638Z,81.14
2022-10-23T11:44:51.331Z,80.55
2022-10-23T11:47:39.734Z,79.96
2022-10-23T11:50:07.022Z,80.00
2022-10-23T11:52:45.537Z,79.01
2022-10-23T11:55:20.399Z,77.24
2022-10-23T11:58:05.252Z,75.58
2022-10-23T12:00:34.928Z,74.61
2022-10-23T12:03:03.194Z,74.68
2022-10-23T12:05:41.690Z,75.12
2022-10-23T12:08:22.178Z,74.05
2022-10-23T12:10:52.871Z,73.84
2022-10-23T12:13:36.252Z,73.85
2022-10-23T12:16:05.010Z,73.53
2022-10-23T12:18:31.767Z,73.57
2022-10-23T12:21:00.219Z,73.89
2022-10-23T12:23:54.723Z,74.20
2022-10-23T12:26:50.793Z,74.46
2022-10-23T12:29:27.912Z,74.31
2022-10-23T12:32:07.361Z,74.40
2022-10-23T12:35:06.112Z,73.75
2022-10-23T12:38:00.898Z,74.05
2022-10-23T12:40:30.184Z,73.47
2022-10-23T12:42:59.241Z,73.40
2022-10-23T12:45:30.275Z,74.00
2022-10-23T12:47:56.973Z,73.84
2022-10-23T12:50:37.141Z,74.24
2022-10-23T12:53:07.662Z,74.64
2022-10-23T12:56:04.224Z,74.48
2022-10-23T12:58:34.167Z,74.79
2022-10-23T13:01:05.977Z,74.87
2022-10-23T13:03:34.873Z,74.94
2022-10-23T13:06:03.093Z,75.00
2022-10-23T13:08:39.596Z,75.42
2022-10-23T13:11:06.940Z,75.34
2022-10-23T13:13:33.615Z,75.81
2022-10-23T13:16:00.114Z,75.66
2022-10-23T13:18:26.814Z,75.78
2022-10-23T13:20:53.339Z,75.85
2022-10-23T13:23:33.931Z,76.27
2022-10-23T13:26:01.851Z,76.36
2022-10-23T13:28:48.853Z,76.44
2022-10-23T13:31:15.529Z,76.24
2022-10-23T13:33:47.916Z,76.61
2022-10-23T13:36:17.586Z,76.44
2022-10-23T13:38:46.571Z,76.52
2022-10-23T13:41:17.440Z,76.15
2022-10-23T13:43:45.421Z,76.31
2022-10-23T13:46:18.456Z,76.25
2022-10-23T13:48:45.227Z,76.39
2022-10-23T13:51:19.147Z,76.38
2022-10-23T13:53:46.147Z,76.49
2022-10-23T13:56:14.181Z,76.62
2022-10-23T13:58:40.717Z,76.63
2022-10-23T14:01:12.658Z,76.76
2022-10-23T14:03:39.134Z,76.89
2022-10-23T14:06:05.983Z,76.82
2022-10-23T14:08:32.516Z,76.98
2022-10-23T14:11:02.350Z,77.26
2022-10-23T14:13:28.966Z,77.34
2022-10-23T14:15:55.873Z,77.16
2022-10-23T14:18:22.450Z,77.07
2022-10-23T14:20:49.090Z,77.13
2022-10-23T14:23:15.645Z,77.02
2022-10-23T14:25:42.277Z,77.28
2022-10-23T14:28:09.002Z,77.42
2022-10-23T14:30:38.704Z,77.50
2022-10-23T14:33:05.245Z,77.29
2022-10-23T14:35:31.957Z,77.43
2022-10-23T14:37:58.631Z,77.52
2022-10-23T14:40:26.419Z,77.63
2022-10-23T14:42:53.035Z,77.83
2022-10-23T14:45:20.926Z,77.81
2022-10-23T14:47:47.500Z,77.80
2022-10-23T14:50:14.176Z,77.95
2022-10-23T14:52:40.755Z,77.77
2022-10-23T14:55:10.599Z,78.44
2022-10-23T14:57:37.683Z,78.35
2022-10-23T15:00:06.377Z,78.32
2022-10-23T15:02:32.901Z,78.71
2022-10-23T15:04:59.427Z,78.90
2022-10-23T15:07:26.816Z,79.15
2022-10-23T15:09:57.168Z,79.19
2022-10-23T15:12:25.120Z,79.44
2022-10-23T15:14:52.950Z,79.53
2022-10-23T15:17:19.440Z,79.56
2022-10-23T15:19:46.022Z,79.44
2022-10-23T15:22:13.727Z,79.71
2022-10-23T15:24:41.354Z,79.92
2022-10-23T15:29:54.270Z,80.42
2022-10-23T15:32:20.841Z,80.73
2022-10-23T15:34:49.766Z,81.03
2022-10-23T15:37:16.501Z,80.96
2022-10-23T15:39:43.413Z,81.01
2022-10-23T15:42:10.233Z,81.15
2022-10-23T15:44:37.354Z,81.18
2022-10-23T15:47:04.051Z,81.52
2022-10-23T15:49:30.897Z,81.43
2022-10-23T15:51:58.222Z,81.64
2022-10-23T15:54:28.114Z,81.70
2022-10-23T15:56:57.455Z,82.20
2022-10-23T15:59:25.349Z,82.36
2022-10-23T16:01:52.419Z,82.29
2022-10-23T16:04:19.520Z,82.47
2022-10-23T16:06:46.185Z,82.41
2022-10-23T16:09:13.452Z,82.95
2022-10-23T16:11:41.604Z,83.34
2022-10-23T16:14:11.746Z,83.50
2022-10-23T16:16:38.274Z,83.92
2022-10-23T16:19:05.438Z,84.55
2022-10-23T16:21:35.728Z,85.20
2022-10-23T16:24:05.304Z,85.95
2022-10-23T16:26:34.854Z,86.81
2022-10-23T16:29:05.650Z,87.68
2022-10-23T16:31:34.228Z,88.52
2022-10-23T16:34:02.001Z,89.40
2022-10-23T16:36:29.445Z,89.43
2022-10-23T16:38:57.713Z,89.96
2022-10-23T16:41:26.016Z,90.59
2022-10-23T16:43:53.908Z,91.22
2022-10-23T16:46:22.001Z,91.67
2022-10-23T16:49:12.089Z,92.42
2022-10-23T16:51:38.646Z,92.90
2022-10-23T16:54:05.472Z,93.73
2022-10-23T16:56:32.314Z,94.17
2022-10-23T16:58:59.940Z,94.56
2022-10-23T17:01:30.046Z,94.96
2022-10-23T17:03:57.331Z,96.06
2022-10-23T17:06:27.156Z,96.08
2022-10-23T17:08:55.170Z,95.62
2022-10-23T17:11:30.520Z,94.96
2022-10-23T17:14:06.013Z,95.07
2022-10-23T17:16:36.891Z,95.59
2022-10-23T17:19:15.955Z,95.73
2022-10-23T17:21:47.833Z,95.65
2022-10-23T17:24:14.401Z,95.83
2022-10-23T17:26:42.702Z,95.58
2022-10-23T17:29:11.120Z,95.64
2022-10-23T17:31:40.149Z,95.47
2022-10-23T17:34:19.516Z,95.84
2022-10-23T17:36:48.905Z,95.97
2022-10-23T17:39:26.678Z,95.87
2022-10-23T17:41:54.340Z,96.13
2022-10-23T17:44:21.119Z,95.93
2022-10-23T17:46:53.909Z,95.91
2022-10-23T17:49:21.025Z,96.01
2022-10-23T17:58:40.170Z,95.95
2022-10-23T18:01:06.914Z,95.92
2022-10-23T18:03:38.426Z,95.93
2022-10-23T18:06:15.092Z,95.59
2022-10-23T18:11:29.186Z,95.88
2022-10-23T18:19:26.555Z,95.76
2022-10-23T18:21:53.232Z,95.68
2022-10-23T18:24:23.231Z,95.85
2022-10-23T18:26:49.830Z,95.32
2022-10-23T18:29:17.499Z,95.45
2022-10-23T18:31:50.347Z,95.48
2022-10-23T18:34:21.300Z,95.46
2022-10-23T18:39:29.972Z,95.25
2022-10-23T18:41:57.950Z,95.33
2022-10-23T18:44:28.837Z,95.07
2022-10-23T18:46:57.227Z,95.07
2022-10-23T18:49:24.001Z,95.22
2022-10-23T18:54:31.915Z,95.52
2022-10-23T18:59:39.077Z,95.65
2022-10-23T19:02:05.687Z,95.65
2022-10-23T19:04:35.546Z,95.53
2022-10-23T19:07:03.193Z,95.37
2022-10-23T19:09:33.258Z,95.46
2022-10-23T19:12:02.239Z,95.40
2022-10-23T19:14:29.987Z,95.36
2022-10-23T19:17:02.643Z,95.53
2022-10-23T19:19:41.487Z,95.64
2022-10-23T19:22:11.172Z,95.63
2022-10-23T19:24:59.668Z,95.79
2022-10-23T19:27:27.218Z,95.93
2022-10-23T19:29:55.128Z,96.05
2022-10-23T19:35:03.320Z,96.31
2022-10-23T19:40:14.086Z,96.55
2022-10-23T19:42:42.578Z,96.57
2022-10-23T19:47:55.090Z,96.39
2022-10-23T19:53:02.095Z,96.14
2022-10-23T19:55:28.660Z,96.11
2022-10-23T19:57:56.777Z,96.18
2022-10-23T20:00:24.213Z,96.27
2022-10-23T20:05:31.637Z,96.53
2022-10-23T20:07:58.454Z,96.56
2022-10-23T20:10:33.386Z,96.49
2022-10-23T20:13:18.265Z,96.64
2022-10-23T20:15:46.156Z,96.80
2022-10-23T20:18:12.939Z,96.92
2022-10-23T20:20:41.341Z,96.87
2022-10-23T20:23:07.918Z,96.82
2022-10-23T20:25:34.422Z,96.88
2022-10-23T20:28:01.049Z,96.96
2022-10-23T20:33:08.587Z,96.79
2022-10-23T20:38:23.191Z,96.80
2022-10-23T20:43:34.642Z,96.57
2022-10-23T20:48:45.644Z,96.48
2022-10-23T20:53:55.741Z,96.39
2022-10-23T20:56:33.738Z,96.23
2022-10-23T20:59:02.281Z,95.97
2022-10-23T21:01:30.417Z,95.95
2022-10-23T21:03:59.565Z,95.83
2022-10-23T21:06:31.495Z,96.00
2022-10-23T21:09:04.820Z,96.19
2022-10-23T21:11:34.685Z,96.41
2022-10-23T21:14:01.688Z,96.60
2022-10-23T21:16:32.234Z,96.52
2022-10-23T21:18:59.913Z,96.11
2022-10-23T21:21:38.885Z,95.97
2022-10-23T21:24:09.958Z,95.83
2022-10-23T21:26:37.006Z,95.74
2022-10-23T21:29:17.877Z,95.63
2022-10-23T21:31:48.525Z,95.70
2022-10-23T21:34:15.217Z,95.70
2022-10-23T21:37:11.403Z,95.75
2022-10-23T21:39:34.387Z,95.69
2022-10-23T21:42:06.522Z,95.73
2022-10-23T21:44:35.205Z,95.80
2022-10-23T21:47:01.813Z,95.97
2022-10-23T21:49:28.827Z,96.02
2022-10-23T21:51:55.617Z,96.20
2022-10-23T21:54:22.625Z,96.08
2022-10-23T21:56:51.609Z,96.11
2022-10-23T21:59:21.091Z,95.90
2022-10-23T22:01:48.906Z,95.84
2022-10-23T22:04:17.492Z,95.66
2022-10-23T22:06:44.914Z,95.71
2022-10-23T22:09:17.461Z,95.51
2022-10-23T22:11:44.182Z,95.45
2022-10-23T22:14:10.871Z,95.24
2022-10-23T22:16:37.440Z,95.14
2022-10-23T22:19:04.440Z,94.81
2022-10-23T22:21:31.107Z,94.90
2022-10-23T22:23:59.907Z,94.96
2022-10-23T22:26:32.635Z,95.06
2022-10-23T22:29:01.626Z,94.91
2022-10-23T22:31:31.945Z,95.08
2022-10-23T22:33:59.950Z,95.03
2022-10-23T22:36:29.467Z,95.10
2022-10-23T22:38:56.837Z,95.20
2022-10-23T22:41:23.961Z,95.25
2022-10-23T22:43:58.177Z,95.48
2022-10-23T22:46:26.245Z,95.59
2022-10-23T22:48:53.101Z,95.77
2022-10-23T22:51:21.834Z,95.80
2022-10-23T22:53:48.419Z,95.78
2022-10-23T22:56:17.589Z,95.76
2022-10-23T22:58:44.697Z,95.95
2022-10-23T23:01:18.474Z,96.04
2022-10-23T23:03:45.842Z,95.97
2022-10-23T23:06:13.313Z,95.71
2022-10-23T23:08:41.063Z,95.83
2022-10-23T23:11:08.681Z,95.70
2022-10-23T23:13:35.633Z,95.69
2022-10-23T23:16:03.405Z,95.86
2022-10-23T23:18:30.311Z,95.88
2022-10-23T23:21:04.490Z,95.91
2022-10-23T23:23:31.855Z,95.78
2022-10-23T23:25:58.804Z,95.79
2022-10-23T23:28:25.439Z,95.62
2022-10-23T23:31:03.780Z,95.63
2022-10-23T23:33:30.646Z,95.46
2022-10-23T23:35:57.343Z,95.62
2022-10-23T23:38:23.944Z,95.59
2022-10-23T23:40:53.001Z,95.52
2022-10-23T23:43:20.168Z,95.33
2022-10-23T23:45:46.858Z,95.14
2022-10-23T23:48:13.485Z,95.47
2022-10-23T23:50:40.121Z,95.66
2022-10-23T23:53:06.668Z,95.49
2022-10-23T23:55:33.267Z,95.35
